createdAt,value
2023-01-09T00:01:25.868Z,1.07
2023-01-09T00:03:53.854Z,0.60
2023-01-09T00:06:21.901Z,0.97
2023-01-09T00:08:49.896Z,1.00
2023-01-09T00:11:19.218Z,1.07
2023-01-09T00:13:47.972Z,0.80
2023-01-09T00:16:16.846Z,1.00
2023-01-09T00:18:44.805Z,1.03
2023-01-09T00:21:13.703Z,0.70
2023-01-09T00:23:41.770Z,0.93
2023-01-09T00:26:12.333Z,1.20
2023-01-09T00:28:42.169Z,0.97
2023-01-09T00:31:10.872Z,1.53
2023-01-09T00:33:42.889Z,1.03
2023-01-09T00:36:11.739Z,1.43
2023-01-09T00:38:40.880Z,0.67
2023-01-09T00:41:12.780Z,0.90
2023-01-09T00:43:46.081Z,0.80
2023-01-09T00:46:15.049Z,1.20
2023-01-09T00:48:45.275Z,1.03
2023-01-09T00:51:13.131Z,0.90
2023-01-09T00:53:43.821Z,1.03
2023-01-09T00:56:16.040Z,1.17
2023-01-09T00:58:45.678Z,0.90
2023-01-09T01:01:13.912Z,0.90
2023-01-09T01:03:42.113Z,1.00
2023-01-09T01:06:27.994Z,1.00
2023-01-09T01:08:56.797Z,1.00
2023-01-09T01:11:25.354Z,1.20
2023-01-09T01:13:54.912Z,1.10
2023-01-09T01:16:22.776Z,1.20
2023-01-09T01:18:50.722Z,1.00
2023-01-09T01:21:19.290Z,0.90
2023-01-09T01:23:47.242Z,1.13
2023-01-09T01:26:16.869Z,1.00
2023-01-09T01:28:44.755Z,1.23
2023-01-09T01:31:20.058Z,1.37
2023-01-09T01:33:48.122Z,1.10
2023-01-09T01:36:17.511Z,1.40
2023-01-09T01:38:46.805Z,0.97
2023-01-09T01:41:29.261Z,0.90
2023-01-09T01:43:59.450Z,1.80
2023-01-09T01:46:28.822Z,1.20
2023-01-09T01:49:02.189Z,1.13
2023-01-09T01:51:32.643Z,0.87
2023-01-09T01:54:04.317Z,1.10
2023-01-09T01:56:37.429Z,1.40
2023-01-09T01:59:09.746Z,1.97
2023-01-09T02:01:41.824Z,1.33
2023-01-09T02:04:10.365Z,1.23
2023-01-09T02:06:39.136Z,1.40
2023-01-09T02:09:08.396Z,1.00
2023-01-09T02:11:36.441Z,1.30
2023-01-09T02:14:04.658Z,1.60
2023-01-09T02:16:47.675Z,1.33
2023-01-09T02:19:35.089Z,1.30
2023-01-09T02:22:11.449Z,1.30
2023-01-09T02:25:04.520Z,1.87
2023-01-09T02:27:59.325Z,1.20
2023-01-09T02:30:47.749Z,1.20
2023-01-09T02:33:25.660Z,1.50
2023-01-09T02:36:02.935Z,1.13
2023-01-09T02:38:36.835Z,1.53
2023-01-09T02:41:09.461Z,0.97
2023-01-09T02:43:37.262Z,1.80
2023-01-09T02:46:06.894Z,1.10
2023-01-09T02:48:34.868Z,1.57
2023-01-09T02:51:13.814Z,1.77
2023-01-09T02:54:12.320Z,1.80
2023-01-09T02:56:59.188Z,1.70
2023-01-09T02:59:33.660Z,1.73
2023-01-09T03:02:16.104Z,1.70
2023-01-09T03:04:57.082Z,1.80
2023-01-09T03:07:31.794Z,1.50
2023-01-09T03:10:05.692Z,1.80
2023-01-09T03:12:34.597Z,1.90
2023-01-09T03:15:03.609Z,2.20
2023-01-09T03:17:38.011Z,1.97
2023-01-09T03:20:08.824Z,2.37
2023-01-09T03:22:36.732Z,2.30
2023-01-09T03:25:04.747Z,2.20
2023-01-09T03:27:33.158Z,3.00
2023-01-09T03:30:01.127Z,2.27
2023-01-09T03:32:28.924Z,2.70
2023-01-09T03:34:58.079Z,2.53
2023-01-09T03:37:25.914Z,2.80
2023-01-09T03:39:53.866Z,2.70
2023-01-09T03:42:21.715Z,2.93
2023-01-09T03:44:50.806Z,2.60
2023-01-09T03:47:18.665Z,3.10
2023-01-09T03:49:46.544Z,3.03
2023-01-09T03:52:15.850Z,3.17
2023-01-09T03:54:43.703Z,3.20
2023-01-09T03:57:11.593Z,2.90
2023-01-09T03:59:39.834Z,3.20
2023-01-09T04:02:08.259Z,3.20
2023-01-09T04:04:36.286Z,3.20
2023-01-09T04:07:04.166Z,2.70
2023-01-09T04:09:33.424Z,3.00
2023-01-09T04:12:01.246Z,2.60
2023-01-09T04:14:29.638Z,2.70
2023-01-09T04:16:57.504Z,2.70
2023-01-09T04:19:25.408Z,3.10
2023-01-09T04:21:53.312Z,3.00
2023-01-09T04:24:21.210Z,2.87
2023-01-09T04:26:50.468Z,2.67
2023-01-09T04:29:18.327Z,3.00
2023-01-09T04:31:46.240Z,2.80
2023-01-09T04:34:14.213Z,2.90
2023-01-09T04:36:43.007Z,2.90
2023-01-09T04:39:11.172Z,2.77
2023-01-09T04:41:51.041Z,2.90
2023-01-09T04:44:22.096Z,2.53
2023-01-09T04:46:50.315Z,2.87
2023-01-09T04:49:18.128Z,2.83
2023-01-09T04:51:46.147Z,2.80
2023-01-09T04:54:14.221Z,2.70
2023-01-09T04:56:42.196Z,2.57
2023-01-09T04:59:10.706Z,2.47
2023-01-09T05:01:40.141Z,2.60
2023-01-09T05:04:08.231Z,2.40
2023-01-09T05:06:36.367Z,2.60
2023-01-09T05:09:04.336Z,2.50
2023-01-09T05:11:32.215Z,2.73
2023-01-09T05:14:00.056Z,2.67
2023-01-09T05:16:28.007Z,2.57
2023-01-09T05:18:57.389Z,2.50
2023-01-09T05:21:25.489Z,2.20
2023-01-09T05:23:53.874Z,2.80
2023-01-09T05:26:24.027Z,2.47
2023-01-09T05:28:52.432Z,2.23
2023-01-09T05:31:21.445Z,2.10
2023-01-09T05:33:49.319Z,2.10
2023-01-09T05:36:18.726Z,2.00
2023-01-09T05:38:46.591Z,2.00
2023-01-09T05:41:14.482Z,2.00
2023-01-09T05:43:42.389Z,1.73
2023-01-09T05:46:10.348Z,1.97
2023-01-09T05:48:38.793Z,1.87
2023-01-09T05:51:06.924Z,1.60
2023-01-09T05:53:36.232Z,1.77
2023-01-09T05:56:04.896Z,2.00
2023-01-09T05:58:32.731Z,1.83
2023-01-09T06:01:00.733Z,1.80
2023-01-09T06:03:28.629Z,1.70
2023-01-09T06:05:56.443Z,1.80
2023-01-09T06:08:24.259Z,1.87
2023-01-09T06:10:53.473Z,1.73
2023-01-09T06:13:21.434Z,1.60
2023-01-09T06:15:49.668Z,1.50
2023-01-09T06:18:17.677Z,1.33
2023-01-09T06:20:45.861Z,1.13
2023-01-09T06:23:14.006Z,1.57
2023-01-09T06:25:42.160Z,1.50
2023-01-09T06:28:11.520Z,1.27
2023-01-09T06:30:39.395Z,1.27
2023-01-09T06:33:07.301Z,1.40
2023-01-09T06:35:35.147Z,1.80
2023-01-09T06:38:03.378Z,0.90
2023-01-09T06:40:31.315Z,1.50
2023-01-09T06:42:59.195Z,1.20
2023-01-09T06:45:28.541Z,1.13
2023-01-09T06:47:56.401Z,1.40
2023-01-09T06:50:24.416Z,1.33
2023-01-09T06:52:52.362Z,1.43
2023-01-09T06:55:20.243Z,1.20
2023-01-09T06:57:48.171Z,1.33
2023-01-09T07:00:16.687Z,1.17
2023-01-09T07:02:45.912Z,1.53
2023-01-09T07:05:13.931Z,1.03
2023-01-09T07:07:42.167Z,1.47
2023-01-09T07:10:11.871Z,1.70
2023-01-09T07:12:39.743Z,1.60
2023-01-09T07:15:08.762Z,1.70
2023-01-09T07:17:36.681Z,1.60
2023-01-09T07:20:07.077Z,1.40
2023-01-09T07:22:35.022Z,1.40
2023-01-09T07:25:02.971Z,1.60
2023-01-09T07:27:30.826Z,1.40
2023-01-09T07:29:58.821Z,1.43
2023-01-09T07:32:26.840Z,1.73
2023-01-09T07:34:54.721Z,1.70
2023-01-09T07:37:24.012Z,1.70
2023-01-09T07:39:52.081Z,2.07
2023-01-09T07:42:20.089Z,1.70
2023-01-09T07:44:48.043Z,1.60
2023-01-09T07:47:15.919Z,1.53
2023-01-09T07:49:43.791Z,1.50
2023-01-09T07:52:11.676Z,1.63
2023-01-09T07:54:40.879Z,1.73
2023-01-09T07:57:08.786Z,1.50
2023-01-09T07:59:36.751Z,1.90
2023-01-09T08:02:05.631Z,1.87
2023-01-09T08:04:33.870Z,2.10
2023-01-09T08:07:03.202Z,2.03
2023-01-09T08:09:31.275Z,1.80
2023-01-09T08:12:00.621Z,1.70
2023-01-09T08:14:28.571Z,1.90
2023-01-09T08:16:56.561Z,1.90
2023-01-09T08:19:24.486Z,1.50
2023-01-09T08:21:52.349Z,2.10
2023-01-09T08:24:20.404Z,2.13
2023-01-09T08:26:48.385Z,1.97
2023-01-09T08:29:17.832Z,2.40
2023-01-09T08:31:45.893Z,2.70
2023-01-09T08:34:13.877Z,2.27
2023-01-09T08:36:41.812Z,2.33
2023-01-09T08:39:10.907Z,2.37
2023-01-09T08:41:56.454Z,2.30
2023-01-09T08:44:43.247Z,2.27
2023-01-09T08:47:11.336Z,2.50
2023-01-09T08:49:40.084Z,2.73
2023-01-09T08:52:08.690Z,2.67
2023-01-09T08:54:39.006Z,2.73
2023-01-09T08:57:07.309Z,3.23
2023-01-09T08:59:36.920Z,2.57
2023-01-09T09:02:04.924Z,3.20
2023-01-09T09:04:32.794Z,2.70
2023-01-09T09:07:00.833Z,3.00
2023-01-09T09:09:28.827Z,2.80
2023-01-09T09:11:56.809Z,2.93
2023-01-09T09:14:47.937Z,3.00
2023-01-09T09:17:17.160Z,3.47
2023-01-09T09:19:45.209Z,2.97
2023-01-09T09:22:13.117Z,3.30
2023-01-09T09:24:41.092Z,3.20
2023-01-09T09:27:09.039Z,3.17
2023-01-09T09:29:36.998Z,2.47
2023-01-09T09:32:05.267Z,2.97
2023-01-09T09:34:34.828Z,3.33
2023-01-09T09:37:02.882Z,3.20
2023-01-09T09:39:30.861Z,3.10
2023-01-09T09:42:45.964Z,3.10
2023-01-09T09:45:26.290Z,3.30
2023-01-09T09:48:05.997Z,3.40
2023-01-09T09:51:00.069Z,2.90
2023-01-09T09:53:33.157Z,2.90
2023-01-09T09:56:02.595Z,3.00
2023-01-09T09:58:36.780Z,2.87
2023-01-09T10:01:05.509Z,2.53
2023-01-09T10:03:38.587Z,2.63
2023-01-09T10:06:14.032Z,2.67
2023-01-09T10:08:50.851Z,2.60
2023-01-09T10:11:25.411Z,2.13
2023-01-09T10:14:22.838Z,2.90
2023-01-09T10:17:27.925Z,2.50
2023-01-09T10:20:37.489Z,2.70
2023-01-09T10:23:22.474Z,3.03
2023-01-09T10:25:57.432Z,2.07
2023-01-09T10:28:46.082Z,2.00
2023-01-09T10:31:21.789Z,1.80
2023-01-09T10:34:03.692Z,2.20
2023-01-09T10:36:55.842Z,1.97
2023-01-09T10:39:31.502Z,1.80
2023-01-09T10:42:05.181Z,1.87
2023-01-09T10:44:38.443Z,2.10
2023-01-09T10:47:12.510Z,2.00
2023-01-09T10:49:41.451Z,1.80
2023-01-09T10:52:18.118Z,1.70
2023-01-09T10:54:53.656Z,1.80
2023-01-09T10:57:44.863Z,1.87
2023-01-09T11:00:21.042Z,1.93
2023-01-09T11:02:50.420Z,2.13
2023-01-09T11:05:21.682Z,1.57
2023-01-09T11:07:54.294Z,2.10
2023-01-09T11:10:23.533Z,1.83
2023-01-09T11:12:51.471Z,1.80
2023-01-09T11:15:30.142Z,1.80
2023-01-09T11:18:20.737Z,2.07
2023-01-09T11:20:49.059Z,1.87
2023-01-09T11:23:32.723Z,1.80
2023-01-09T11:26:04.098Z,1.90
2023-01-09T11:28:32.124Z,1.50
2023-01-09T11:31:01.874Z,1.83
2023-01-09T11:33:32.330Z,1.87
2023-01-09T11:36:04.064Z,1.80
2023-01-09T11:38:33.321Z,2.17
2023-01-09T11:41:06.642Z,1.70
2023-01-09T11:43:37.701Z,2.07
2023-01-09T11:46:08.060Z,2.20
2023-01-09T11:48:39.388Z,2.63
2023-01-09T11:51:19.459Z,2.10
2023-01-09T11:54:07.282Z,2.00
2023-01-09T11:56:37.728Z,1.97
2023-01-09T11:59:12.074Z,1.97
2023-01-09T12:02:18.043Z,1.63
2023-01-09T12:04:52.019Z,1.80
2023-01-09T12:08:06.765Z,2.13
2023-01-09T12:10:47.965Z,1.90
2023-01-09T12:13:34.767Z,1.80
2023-01-09T12:16:12.994Z,2.40
2023-01-09T12:19:01.758Z,2.43
2023-01-09T12:21:35.224Z,1.40
2023-01-09T12:24:34.410Z,1.83
2023-01-09T12:27:15.513Z,1.97
2023-01-09T12:29:57.914Z,2.03
2023-01-09T12:32:38.393Z,2.13
2023-01-09T12:35:18.537Z,2.20
2023-01-09T12:38:02.522Z,2.33
2023-01-09T12:41:01.085Z,2.30
2023-01-09T12:43:40.777Z,1.93
2023-01-09T12:46:17.242Z,2.83
2023-01-09T12:49:04.900Z,2.53
2023-01-09T12:51:36.217Z,3.00
2023-01-09T12:54:10.257Z,1.83
2023-01-09T12:56:41.888Z,1.97
2023-01-09T12:59:29.996Z,1.97
2023-01-09T13:02:07.796Z,1.93
2023-01-09T13:04:40.983Z,2.10
2023-01-09T13:07:17.415Z,2.27
2023-01-09T13:09:50.454Z,2.40
2023-01-09T13:12:21.835Z,2.17
2023-01-09T13:14:56.359Z,2.10
2023-01-09T13:17:31.010Z,2.13
2023-01-09T13:19:59.013Z,2.30
2023-01-09T13:22:29.633Z,1.93
2023-01-09T13:25:16.657Z,1.97
2023-01-09T13:27:53.471Z,1.40
2023-01-09T13:30:33.024Z,1.73
2023-01-09T13:33:15.814Z,2.10
2023-01-09T13:35:52.374Z,2.43
2023-01-09T13:38:22.811Z,1.63
2023-01-09T13:41:23.868Z,2.73
2023-01-09T13:44:01.579Z,1.90
2023-01-09T13:46:38.398Z,2.43
2023-01-09T13:49:08.894Z,2.00
2023-01-09T13:51:53.542Z,2.00
2023-01-09T13:54:55.230Z,1.90
2023-01-09T13:57:29.706Z,1.70
2023-01-09T14:00:00.448Z,2.10
2023-01-09T14:03:05.987Z,2.33
2023-01-09T14:06:27.554Z,2.07
2023-01-09T14:09:16.391Z,2.30
2023-01-09T14:11:44.883Z,2.20
2023-01-09T14:14:27.247Z,1.83
2023-01-09T14:16:55.398Z,1.90
2023-01-09T14:19:35.856Z,2.20
2023-01-09T14:22:04.525Z,1.97
2023-01-09T14:24:40.987Z,2.47
2023-01-09T14:27:50.281Z,1.97
2023-01-09T14:30:30.476Z,2.03
2023-01-09T14:33:00.383Z,1.80
2023-01-09T14:35:41.139Z,1.83
2023-01-09T14:38:29.247Z,2.30
2023-01-09T14:41:03.127Z,2.40
2023-01-09T14:43:45.272Z,2.20
2023-01-09T14:46:16.723Z,2.23
2023-01-09T14:48:59.930Z,1.97
2023-01-09T14:51:29.131Z,1.60
2023-01-09T14:53:58.216Z,2.10
2023-01-09T14:56:30.788Z,2.60
2023-01-09T14:59:12.127Z,1.90
2023-01-09T15:01:43.151Z,2.07
2023-01-09T15:04:23.916Z,2.10
2023-01-09T15:06:52.122Z,2.63
2023-01-09T15:09:26.012Z,2.00
2023-01-09T15:11:58.878Z,1.90
2023-01-09T15:14:32.017Z,1.73
2023-01-09T15:17:01.032Z,2.00
2023-01-09T15:19:30.037Z,1.63
2023-01-09T15:21:59.457Z,1.87
2023-01-09T15:24:29.731Z,2.00
2023-01-09T15:27:01.050Z,2.30
2023-01-09T15:29:29.214Z,2.00
2023-01-09T15:32:02.883Z,1.70
2023-01-09T15:34:30.900Z,1.93
2023-01-09T15:36:58.996Z,1.90
2023-01-09T15:39:31.329Z,2.23
2023-01-09T15:42:19.445Z,2.27
2023-01-09T15:44:49.829Z,1.83
2023-01-09T15:47:21.426Z,1.80
2023-01-09T15:49:49.525Z,2.07
2023-01-09T15:52:18.285Z,2.67
2023-01-09T15:54:47.054Z,2.03
2023-01-09T15:57:35.724Z,2.10
2023-01-09T16:00:33.223Z,2.07
2023-01-09T16:03:12.855Z,2.00
2023-01-09T16:05:42.068Z,1.73
2023-01-09T16:08:22.041Z,2.00
2023-01-09T16:10:52.876Z,2.27
2023-01-09T16:13:25.367Z,2.23
2023-01-09T16:15:55.242Z,2.00
2023-01-09T16:18:30.244Z,2.37
2023-01-09T16:21:24.073Z,2.30
2023-01-09T16:23:57.474Z,2.00
2023-01-09T16:26:28.538Z,2.37
2023-01-09T16:29:18.296Z,2.00
2023-01-09T16:31:46.417Z,2.10
2023-01-09T16:34:14.808Z,1.40
2023-01-09T16:36:42.746Z,1.03
2023-01-09T16:39:15.727Z,1.20
2023-01-09T16:42:01.630Z,1.10
2023-01-09T16:44:30.804Z,1.70
2023-01-09T16:46:59.864Z,1.60
2023-01-09T16:49:28.786Z,1.57
2023-01-09T16:52:02.816Z,1.63
2023-01-09T16:54:31.395Z,1.33
2023-01-09T16:57:01.043Z,1.57
2023-01-09T16:59:30.331Z,1.40
2023-01-09T17:01:58.210Z,1.60
2023-01-09T17:04:26.094Z,1.63
2023-01-09T17:06:53.973Z,2.10
2023-01-09T17:09:25.858Z,1.83
2023-01-09T17:11:55.072Z,1.40
2023-01-09T17:14:22.986Z,1.53
2023-01-09T17:16:52.244Z,2.53
2023-01-09T17:19:21.317Z,1.70
2023-01-09T17:21:49.258Z,1.70
2023-01-09T17:24:34.616Z,1.73
2023-01-09T17:27:21.004Z,1.70
2023-01-09T17:29:49.565Z,1.90
2023-01-09T17:32:19.643Z,2.10
2023-01-09T17:34:47.533Z,2.23
2023-01-09T17:37:17.407Z,2.23
2023-01-09T17:39:45.991Z,2.30
2023-01-09T17:42:13.887Z,2.13
2023-01-09T17:44:41.786Z,2.00
2023-01-09T17:47:15.095Z,1.60
2023-01-09T17:49:44.583Z,1.57
2023-01-09T17:52:12.431Z,1.43
2023-01-09T17:54:40.378Z,2.10
2023-01-09T17:57:08.716Z,1.70
2023-01-09T17:59:36.579Z,1.67
2023-01-09T18:02:04.481Z,1.63
2023-01-09T18:04:32.429Z,1.77
2023-01-09T18:07:01.669Z,1.20
2023-01-09T18:09:29.549Z,1.40
2023-01-09T18:11:57.448Z,1.33
2023-01-09T18:14:25.307Z,1.30
2023-01-09T18:16:53.217Z,1.17
2023-01-09T18:19:21.128Z,1.40
2023-01-09T18:21:49.023Z,1.20
2023-01-09T18:24:18.463Z,1.13
2023-01-09T18:26:46.321Z,1.17
2023-01-09T18:29:15.208Z,1.13
2023-01-09T18:31:43.176Z,1.23
2023-01-09T18:34:11.260Z,1.17
2023-01-09T18:36:39.609Z,1.10
2023-01-09T18:39:08.678Z,1.20
2023-01-09T18:41:37.973Z,1.50
2023-01-09T18:44:05.911Z,1.40
2023-01-09T18:46:33.790Z,1.57
2023-01-09T18:49:03.528Z,1.70
2023-01-09T18:51:32.855Z,2.07
2023-01-09T18:54:00.778Z,1.77
2023-01-09T18:56:28.733Z,1.53
2023-01-09T18:58:58.995Z,1.60
2023-01-09T19:01:27.993Z,2.00
2023-01-09T19:03:56.718Z,2.33
2023-01-09T19:06:24.832Z,1.93
2023-01-09T19:08:53.214Z,1.83
2023-01-09T19:11:21.087Z,1.67
2023-01-09T19:13:48.941Z,1.60
2023-01-09T19:16:18.653Z,2.03
2023-01-09T19:18:46.741Z,2.13
2023-01-09T19:21:16.669Z,2.07
2023-01-09T19:23:45.354Z,2.07
2023-01-09T19:26:20.236Z,2.30
2023-01-09T19:28:48.375Z,2.47
2023-01-09T19:31:18.096Z,2.60
2023-01-09T19:33:46.151Z,1.70
2023-01-09T19:36:14.041Z,2.17
2023-01-09T19:38:41.885Z,2.37
2023-01-09T19:41:14.011Z,2.50
2023-01-09T19:43:42.059Z,2.53
2023-01-09T19:46:11.209Z,2.50
2023-01-09T19:48:42.488Z,2.57
2023-01-09T19:51:11.318Z,2.67
2023-01-09T19:53:39.334Z,2.13
2023-01-09T19:56:11.646Z,2.30
2023-01-09T19:58:39.680Z,2.43
2023-01-09T20:01:09.725Z,2.90
2023-01-09T20:03:38.115Z,2.50
2023-01-09T20:06:09.909Z,3.07
2023-01-09T20:08:37.776Z,2.63
2023-01-09T20:11:06.623Z,2.50
2023-01-09T20:13:35.061Z,2.27
2023-01-09T20:16:03.988Z,2.23
2023-01-09T20:18:33.703Z,2.60
2023-01-09T20:21:02.161Z,2.67
2023-01-09T20:23:32.622Z,2.57
2023-01-09T20:26:00.992Z,2.73
2023-01-09T20:28:29.177Z,2.27
2023-01-09T20:30:57.089Z,2.70
2023-01-09T20:33:25.123Z,2.43
2023-01-09T20:35:53.018Z,2.40
2023-01-09T20:38:20.873Z,2.47
2023-01-09T20:40:50.102Z,2.20
2023-01-09T20:43:18.022Z,2.00
2023-01-09T20:45:46.010Z,2.20
2023-01-09T20:48:14.550Z,1.80
2023-01-09T20:50:42.610Z,2.60
2023-01-09T20:53:10.478Z,2.30
2023-01-09T20:55:38.389Z,2.23
2023-01-09T20:58:07.588Z,2.20
2023-01-09T21:00:35.610Z,2.13
2023-01-09T21:03:04.791Z,2.33
2023-01-09T21:05:32.592Z,2.47
2023-01-09T21:08:00.413Z,2.23
2023-01-09T21:10:28.299Z,2.10
2023-01-09T21:12:56.105Z,2.20
2023-01-09T21:15:25.253Z,2.03
2023-01-09T21:17:53.232Z,1.97
2023-01-09T21:20:21.054Z,2.13
2023-01-09T21:22:49.241Z,2.53
2023-01-09T21:25:17.409Z,2.80
2023-01-09T21:27:45.949Z,2.47
2023-01-09T21:30:14.106Z,2.10
2023-01-09T21:32:43.273Z,2.20
2023-01-09T21:35:11.181Z,2.40
2023-01-09T21:37:39.051Z,2.07
2023-01-09T21:40:12.929Z,2.50
2023-01-09T21:42:58.295Z,2.20
2023-01-09T21:45:44.021Z,1.83
2023-01-09T21:48:13.239Z,2.67
2023-01-09T21:50:42.010Z,2.50
2023-01-09T21:53:10.108Z,2.37
2023-01-09T21:55:37.999Z,2.60
2023-01-09T21:58:05.885Z,2.47
2023-01-09T22:00:33.742Z,2.43
2023-01-09T22:03:02.045Z,2.67
2023-01-09T22:05:31.248Z,2.10
2023-01-09T22:07:59.100Z,2.03
2023-01-09T22:10:26.904Z,2.63
2023-01-09T22:13:12.096Z,2.40
2023-01-09T22:15:41.287Z,2.50
2023-01-09T22:18:09.256Z,2.57
2023-01-09T22:20:38.810Z,2.10
2023-01-09T22:23:06.760Z,2.30
2023-01-09T22:25:37.671Z,1.90
2023-01-09T22:28:06.158Z,1.90
2023-01-09T22:30:33.961Z,2.03
2023-01-09T22:33:02.678Z,1.93
2023-01-09T22:35:30.517Z,2.30
2023-01-09T22:37:59.899Z,3.00
2023-01-09T22:40:27.744Z,2.50
2023-01-09T22:42:55.987Z,1.97
2023-01-09T22:45:23.899Z,2.07
2023-01-09T22:47:51.826Z,2.37
2023-01-09T22:50:19.824Z,2.20
2023-01-09T22:52:48.500Z,2.10
2023-01-09T22:55:18.459Z,2.43
2023-01-09T22:57:46.282Z,2.17
2023-01-09T23:00:15.785Z,2.50
2023-01-09T23:02:43.942Z,2.60
2023-01-09T23:05:11.905Z,1.90
2023-01-09T23:07:39.727Z,1.87
2023-01-09T23:10:08.701Z,2.17
2023-01-09T23:12:37.903Z,2.07
2023-01-09T23:15:06.702Z,2.37
2023-01-09T23:17:34.652Z,2.23
2023-01-09T23:20:02.521Z,2.43
2023-01-09T23:22:30.310Z,2.63
2023-01-09T23:24:58.181Z,2.50
2023-01-09T23:27:26.071Z,2.23
2023-01-09T23:29:55.278Z,2.30
2023-01-09T23:32:23.118Z,2.77
2023-01-09T23:34:50.932Z,1.97
2023-01-09T23:37:18.890Z,2.53
2023-01-09T23:39:46.788Z,1.80
2023-01-09T23:42:32.021Z,2.00
2023-01-09T23:45:01.205Z,2.30
2023-01-09T23:47:29.206Z,2.30
2023-01-09T23:49:57.047Z,1.93
2023-01-09T23:52:24.891Z,2.17
2023-01-09T23:54:53.938Z,2.03
2023-01-09T23:57:21.870Z,2.00
2023-01-09T23:59:49.700Z,2.27
